createdAt,value
2023-03-31T00:00:00.103Z,99823.97
2023-03-31T00:00:13.643Z,99831.97
2023-03-31T00:00:26.003Z,99829.31
2023-03-31T00:00:37.899Z,99825.78
2023-03-31T00:00:54.688Z,99825.78
2023-03-31T00:01:06.701Z,99828.47
2023-03-31T00:01:19.215Z,99825.78
2023-03-31T00:01:31.945Z,99820.47
2023-03-31T00:01:44.078Z,99824.97
2023-03-31T00:01:56.104Z,99822.31
2023-03-31T00:02:08.291Z,99816.16
2023-03-31T00:02:20.560Z,99824.97
2023-03-31T00:02:33.316Z,99816.97
2023-03-31T00:02:45.628Z,99819.63
2023-03-31T00:02:57.988Z,99825.78
2023-03-31T00:03:10.452Z,99820.47
2023-03-31T00:03:22.943Z,99819.63
2023-03-31T00:03:35.378Z,99826.81
2023-03-31T00:03:48.069Z,99819.63
2023-03-31T00:04:02.365Z,99823.13
2023-03-31T00:04:14.922Z,99821.50
2023-03-31T00:04:27.506Z,99822.50
2023-03-31T00:04:40.042Z,99826.00
2023-03-31T00:04:52.668Z,99821.50
2023-03-31T00:05:06.678Z,99821.50
2023-03-31T00:05:18.948Z,99823.53
2023-03-31T00:05:31.330Z,99820.03
2023-03-31T00:05:43.362Z,99823.34
2023-03-31T00:05:56.678Z,99820.88
2023-03-31T00:06:11.666Z,99823.53
2023-03-31T00:06:24.537Z,99819.81
2023-03-31T00:06:37.791Z,99818.19
2023-03-31T00:06:50.124Z,99824.16
2023-03-31T00:07:02.340Z,99823.34
2023-03-31T00:07:14.911Z,99819.81
2023-03-31T00:07:26.922Z,99824.97
2023-03-31T00:07:38.877Z,99826.00
2023-03-31T00:07:54.211Z,99819.81
2023-03-31T00:08:06.267Z,99832.97
2023-03-31T00:08:18.509Z,99822.50
2023-03-31T00:08:32.240Z,99827.84
2023-03-31T00:08:45.533Z,99824.16
2023-03-31T00:08:57.867Z,99821.50
2023-03-31T00:09:12.122Z,99824.34
2023-03-31T00:09:24.622Z,99826.00
2023-03-31T00:09:37.004Z,99820.88
2023-03-31T00:09:49.194Z,99826.81
2023-03-31T00:10:16.539Z,99823.13
2023-03-31T00:10:30.977Z,99821.50
2023-03-31T00:10:46.067Z,99819.63
2023-03-31T00:10:59.575Z,99824.97
2023-03-31T00:11:12.320Z,99821.50
2023-03-31T00:11:41.360Z,99822.31
2023-03-31T00:11:53.396Z,99816.97
2023-03-31T00:12:06.176Z,99811.63
2023-03-31T00:12:18.679Z,99815.13
2023-03-31T00:12:31.246Z,99816.16
2023-03-31T00:12:43.373Z,99816.97
2023-03-31T00:12:55.615Z,99821.09
2023-03-31T00:13:08.039Z,99815.13
2023-03-31T00:13:20.654Z,99814.31
2023-03-31T00:13:34.217Z,99817.78
2023-03-31T00:13:46.674Z,99814.13
2023-03-31T00:13:59.249Z,99815.97
2023-03-31T00:14:12.378Z,99811.63
2023-03-31T00:14:24.216Z,99817.59
2023-03-31T00:14:38.304Z,99806.09
2023-03-31T00:14:51.248Z,99806.09
2023-03-31T00:15:03.378Z,99804.25
2023-03-31T00:15:15.436Z,99815.75
2023-03-31T00:15:27.913Z,99810.41
2023-03-31T00:15:40.360Z,99811.44
2023-03-31T00:15:58.728Z,99813.09
2023-03-31T00:16:11.042Z,99812.25
2023-03-31T00:16:23.478Z,99815.75
2023-03-31T00:16:36.066Z,99810.41
2023-03-31T00:16:48.487Z,99805.06
2023-03-31T00:17:01.886Z,99811.22
2023-03-31T00:17:14.533Z,99805.06
2023-03-31T00:17:27.304Z,99805.06
2023-03-31T00:17:39.713Z,99806.75
2023-03-31T00:17:51.997Z,99802.41
2023-03-31T00:18:04.290Z,99806.75
2023-03-31T00:18:16.275Z,99815.56
2023-03-31T00:18:28.742Z,99810.41
2023-03-31T00:18:41.239Z,99806.50
2023-03-31T00:18:55.497Z,99809.41
2023-03-31T00:19:07.789Z,99810.22
2023-03-31T00:19:19.868Z,99807.38
2023-03-31T00:19:31.966Z,99811.03
2023-03-31T00:19:44.061Z,99810.22
2023-03-31T00:19:56.774Z,99814.53
2023-03-31T00:20:10.157Z,99811.84
2023-03-31T00:20:22.880Z,99810.03
2023-03-31T00:20:35.392Z,99803.84
2023-03-31T00:20:48.561Z,99808.19
2023-03-31T00:21:10.299Z,99811.66
2023-03-31T00:21:24.479Z,99818.03
2023-03-31T00:21:36.967Z,99814.34
2023-03-31T00:21:49.601Z,99809.00
2023-03-31T00:22:02.082Z,99807.16
2023-03-31T00:22:14.556Z,99811.66
2023-03-31T00:22:26.707Z,99805.50
2023-03-31T00:22:39.229Z,99804.69
2023-03-31T00:22:51.626Z,99815.16
2023-03-31T00:23:03.757Z,99808.19
2023-03-31T00:23:15.994Z,99805.50
2023-03-31T00:23:28.491Z,99810.69
2023-03-31T00:23:40.911Z,99804.47
2023-03-31T00:23:54.867Z,99813.38
2023-03-31T00:24:07.636Z,99808.03
2023-03-31T00:24:19.938Z,99809.81
2023-03-31T00:24:32.806Z,99814.19
2023-03-31T00:24:44.961Z,99812.47
2023-03-31T00:24:57.572Z,99814.19
2023-03-31T00:25:09.970Z,99813.38
2023-03-31T00:25:22.232Z,99803.50
2023-03-31T00:25:35.270Z,99808.03
2023-03-31T00:25:47.687Z,99807.00
2023-03-31T00:26:00.176Z,99813.38
2023-03-31T00:26:12.433Z,99807.16
2023-03-31T00:26:24.729Z,99805.34
2023-03-31T00:26:37.520Z,99802.69
2023-03-31T00:26:50.366Z,99809.66
2023-03-31T00:27:03.733Z,99808.03
2023-03-31T00:27:16.674Z,99804.31
2023-03-31T00:27:29.629Z,99805.34
2023-03-31T00:27:43.006Z,99806.19
2023-03-31T00:27:55.292Z,99803.50
2023-03-31T00:28:07.404Z,99807.00
2023-03-31T00:28:19.541Z,99811.50
2023-03-31T00:28:31.990Z,99802.69
2023-03-31T00:28:44.235Z,99807.16
2023-03-31T00:28:57.720Z,99801.81
2023-03-31T00:29:12.428Z,99802.84
2023-03-31T00:29:24.465Z,99809.81
2023-03-31T00:29:37.165Z,99805.34
2023-03-31T00:29:49.129Z,99804.69
2023-03-31T00:30:01.438Z,99810.03
2023-03-31T00:30:15.025Z,99817.00
2023-03-31T00:30:27.571Z,99814.53
2023-03-31T00:30:39.874Z,99808.19
2023-03-31T00:30:51.728Z,99811.84
2023-03-31T00:31:05.715Z,99808.38
2023-03-31T00:31:17.805Z,99817.41
2023-03-31T00:31:30.497Z,99807.75
2023-03-31T00:31:43.365Z,99803.22
2023-03-31T00:31:56.180Z,99811.22
2023-03-31T00:32:08.760Z,99810.41
2023-03-31T00:32:21.095Z,99803.44
2023-03-31T00:32:33.037Z,99799.09
2023-03-31T00:32:45.582Z,99803.44
2023-03-31T00:32:59.179Z,99803.63
2023-03-31T00:33:12.134Z,99797.47
2023-03-31T00:33:24.320Z,99800.16
2023-03-31T00:33:37.111Z,99803.81
2023-03-31T00:33:49.271Z,99805.47
2023-03-31T00:34:01.070Z,99799.50
2023-03-31T00:34:14.274Z,99807.53
2023-03-31T00:34:26.198Z,99805.88
2023-03-31T00:34:38.605Z,99797.03
2023-03-31T00:34:51.060Z,99802.38
2023-03-31T00:35:04.083Z,99801.56
2023-03-31T00:35:16.671Z,99800.94
2023-03-31T00:35:28.524Z,99800.94
2023-03-31T00:35:41.158Z,99800.94
2023-03-31T00:35:53.881Z,99800.94
2023-03-31T00:36:06.922Z,99807.31
2023-03-31T00:36:19.626Z,99800.09
2023-03-31T00:36:32.152Z,99799.28
2023-03-31T00:36:44.523Z,99801.34
2023-03-31T00:36:56.818Z,99802.34
2023-03-31T00:37:09.225Z,99792.50
2023-03-31T00:37:21.562Z,99796.19
2023-03-31T00:37:35.241Z,99801.75
2023-03-31T00:37:47.960Z,99801.75
2023-03-31T00:38:00.242Z,99799.25
2023-03-31T00:38:12.422Z,99798.22
2023-03-31T00:38:24.925Z,99807.06
2023-03-31T00:38:37.724Z,99797.41
2023-03-31T00:38:50.338Z,99799.25
2023-03-31T00:39:05.142Z,99798.44
2023-03-31T00:39:19.113Z,99801.28
2023-03-31T00:39:31.132Z,99798.63
2023-03-31T00:39:43.456Z,99806.63
2023-03-31T00:39:55.613Z,99801.28
2023-03-31T00:40:09.930Z,99803.16
2023-03-31T00:40:22.481Z,99800.47
2023-03-31T00:40:36.190Z,99805.81
2023-03-31T00:40:48.578Z,99798.00
2023-03-31T00:41:00.772Z,99796.38
2023-03-31T00:41:14.275Z,99795.53
2023-03-31T00:41:26.786Z,99795.53
2023-03-31T00:41:39.374Z,99801.88
2023-03-31T00:41:51.711Z,99800.84
2023-03-31T00:42:04.144Z,99800.03
2023-03-31T00:42:16.485Z,99793.06
2023-03-31T00:42:29.776Z,99786.88
2023-03-31T00:42:43.370Z,99789.56
2023-03-31T00:42:55.917Z,99792.22
2023-03-31T00:43:24.043Z,99794.06
2023-03-31T00:43:37.721Z,99789.78
2023-03-31T00:44:08.321Z,99791.63
2023-03-31T00:44:21.630Z,99787.28
2023-03-31T00:44:36.389Z,99792.63
2023-03-31T00:45:23.644Z,99785.66
2023-03-31T00:45:36.877Z,99785.84
2023-03-31T00:45:49.059Z,99790.16
2023-03-31T00:46:15.505Z,99797.31
2023-03-31T00:46:31.209Z,99789.53
2023-03-31T00:46:48.659Z,99791.19
2023-03-31T00:47:05.271Z,99791.38
2023-03-31T00:47:22.309Z,99797.72
2023-03-31T00:47:35.212Z,99794.03
2023-03-31T00:47:50.979Z,99788.06
2023-03-31T00:48:07.982Z,99788.06
2023-03-31T00:48:21.187Z,99784.59
2023-03-31T00:48:36.430Z,99789.09
2023-03-31T00:48:51.464Z,99788.28
2023-03-31T00:49:03.956Z,99791.78
2023-03-31T00:49:21.997Z,99787.47
2023-03-31T00:49:37.881Z,99788.47
2023-03-31T00:49:54.873Z,99794.63
2023-03-31T00:50:16.218Z,99790.31
2023-03-31T00:50:32.209Z,99792.16
2023-03-31T00:50:50.093Z,99791.31
2023-03-31T00:51:05.950Z,99792.16
2023-03-31T00:51:20.292Z,99791.31
2023-03-31T00:51:34.636Z,99792.34
2023-03-31T00:51:50.506Z,99788.88
2023-03-31T00:52:07.880Z,99794.22
2023-03-31T00:52:23.918Z,99793.16
2023-03-31T00:52:37.039Z,99793.38
2023-03-31T00:52:51.979Z,99794.22
2023-03-31T00:53:09.654Z,99791.09
2023-03-31T00:53:27.143Z,99798.91
2023-03-31T00:53:40.654Z,99787.22
2023-03-31T00:53:55.942Z,99790.91
2023-03-31T00:54:09.019Z,99801.56
2023-03-31T00:54:24.527Z,99797.88
2023-03-31T00:54:38.279Z,99799.72
2023-03-31T00:54:54.683Z,99798.72
2023-03-31T00:55:11.858Z,99802.22
2023-03-31T00:55:29.158Z,99799.72
2023-03-31T00:55:46.916Z,99797.88
2023-03-31T00:56:02.253Z,99793.38
2023-03-31T00:56:17.244Z,99795.03
2023-03-31T00:56:34.700Z,99784.34
2023-03-31T00:56:49.396Z,99792.34
2023-03-31T00:57:03.009Z,99802.00
2023-03-31T00:57:16.250Z,99802.84
2023-03-31T00:57:32.229Z,99794.00
2023-03-31T00:57:46.854Z,99796.66
2023-03-31T00:58:00.669Z,99792.34
2023-03-31T00:58:13.655Z,99789.69
2023-03-31T00:58:26.778Z,99791.31
2023-03-31T00:58:40.355Z,99795.84
2023-03-31T00:58:53.786Z,99790.50
2023-03-31T00:59:08.857Z,99791.31
2023-03-31T00:59:27.093Z,99794.84
2023-03-31T00:59:42.648Z,99790.50
2023-03-31T01:00:00.674Z,99788.66
2023-03-31T01:00:15.372Z,99797.50
2023-03-31T01:00:27.998Z,99794.84
2023-03-31T01:00:40.769Z,99785.19
2023-03-31T01:00:52.953Z,99798.50
2023-03-31T01:01:06.478Z,99797.50
2023-03-31T01:01:23.059Z,99797.50
2023-03-31T01:01:36.462Z,99797.69
2023-03-31T01:01:49.761Z,99802.84
2023-03-31T01:02:03.240Z,99793.00
2023-03-31T01:02:17.737Z,99797.50
2023-03-31T01:02:29.855Z,99799.13
2023-03-31T01:02:42.659Z,99796.47
2023-03-31T01:02:58.505Z,99793.81
2023-03-31T01:03:10.883Z,99790.13
2023-03-31T01:03:23.565Z,99793.63
2023-03-31T01:03:36.389Z,99790.13
2023-03-31T01:03:48.862Z,99789.28
2023-03-31T01:04:01.601Z,99795.47
2023-03-31T01:04:15.478Z,99791.13
2023-03-31T01:04:30.425Z,99790.13
2023-03-31T01:04:46.760Z,99789.28
2023-03-31T01:05:01.341Z,99795.47
2023-03-31T01:05:14.308Z,99792.81
2023-03-31T01:05:29.195Z,99780.47
2023-03-31T01:05:44.551Z,99793.63
2023-03-31T01:06:00.205Z,99784.81
2023-03-31T01:06:15.220Z,99789.09
2023-03-31T01:06:30.309Z,99782.94
2023-03-31T01:06:52.337Z,99787.47
2023-03-31T01:07:10.834Z,99782.13
2023-03-31T01:07:26.950Z,99784.81
2023-03-31T01:07:44.532Z,99785.63
2023-03-31T01:08:00.297Z,99780.28
2023-03-31T01:08:15.266Z,99781.28
2023-03-31T01:08:28.493Z,99780.28
2023-03-31T01:08:41.600Z,99784.81
2023-03-31T01:08:54.300Z,99780.28
2023-03-31T01:09:07.376Z,99770.63
2023-03-31T01:09:20.138Z,99784.81
2023-03-31T01:09:32.492Z,99773.28
2023-03-31T01:09:45.959Z,99788.47
2023-03-31T01:10:03.146Z,99778.63
2023-03-31T01:10:16.210Z,99783.13
2023-03-31T01:10:29.264Z,99779.66
2023-03-31T01:10:45.209Z,99781.50
2023-03-31T01:11:03.102Z,99779.66
2023-03-31T01:11:18.890Z,99783.13
2023-03-31T01:11:31.822Z,99788.47
2023-03-31T01:11:45.514Z,99783.13
2023-03-31T01:11:58.140Z,99784.16
2023-03-31T01:12:11.164Z,99785.00
2023-03-31T01:12:24.771Z,99785.00
2023-03-31T01:12:40.364Z,99785.19
2023-03-31T01:12:55.215Z,99781.50
2023-03-31T01:13:09.678Z,99784.16
2023-03-31T01:13:22.437Z,99786.84
2023-03-31T01:13:37.162Z,99781.06
2023-03-31T01:13:51.564Z,99782.50
2023-03-31T01:14:04.794Z,99787.84
2023-03-31T01:14:16.757Z,99781.69
2023-03-31T01:14:31.349Z,99780.88
2023-03-31T01:14:43.361Z,99781.69
2023-03-31T01:14:55.896Z,99781.69
2023-03-31T01:15:09.836Z,99776.53
2023-03-31T01:15:22.507Z,99776.53
2023-03-31T01:15:34.789Z,99779.22
2023-03-31T01:15:47.304Z,99780.25
2023-03-31T01:15:59.533Z,99784.53
2023-03-31T01:16:15.825Z,99780.25
2023-03-31T01:16:28.199Z,99776.75
2023-03-31T01:16:40.514Z,99779.44
2023-03-31T01:16:53.373Z,99774.91
2023-03-31T01:17:05.937Z,99773.25
2023-03-31T01:17:20.222Z,99775.91
2023-03-31T01:17:33.910Z,99768.94
2023-03-31T01:17:47.067Z,99774.28
2023-03-31T01:18:00.170Z,99768.31
2023-03-31T01:18:14.813Z,99776.94
2023-03-31T01:18:28.103Z,99765.47
2023-03-31T01:18:40.789Z,99765.47
2023-03-31T01:18:55.068Z,99764.66
2023-03-31T01:19:24.918Z,99767.50
2023-03-31T01:19:53.649Z,99765.84
2023-03-31T01:20:14.917Z,99772.84
2023-03-31T01:20:37.750Z,99768.31
2023-03-31T01:21:12.429Z,99761.97
2023-03-31T01:21:54.117Z,99773.66
2023-03-31T01:22:47.815Z,99766.69
2023-03-31T01:23:22.288Z,99773.84
2023-03-31T01:23:57.549Z,99774.69
2023-03-31T01:24:39.931Z,99766.06
2023-03-31T01:25:27.857Z,99769.72
2023-03-31T01:26:14.914Z,99765.19
2023-03-31T01:26:42.026Z,99771.38
2023-03-31T01:27:04.571Z,99768.72
2023-03-31T01:27:43.304Z,99765.03
2023-03-31T01:28:19.107Z,99775.50
2023-03-31T01:28:37.614Z,99773.03
2023-03-31T01:28:56.194Z,99773.84
2023-03-31T01:29:20.541Z,99774.69
2023-03-31T01:29:51.629Z,99773.66
2023-03-31T01:30:33.134Z,99770.16
2023-03-31T01:31:21.890Z,99771.16
2023-03-31T01:32:20.858Z,99773.84
2023-03-31T01:33:10.172Z,99774.88
2023-03-31T01:33:51.969Z,99775.06
2023-03-31T01:34:47.406Z,99779.38
2023-03-31T01:35:25.886Z,99779.38
2023-03-31T01:35:58.264Z,99783.06
2023-03-31T01:36:54.429Z,99772.38
2023-03-31T01:37:59.783Z,99777.09
2023-03-31T01:38:37.144Z,99777.94
2023-03-31T01:39:30.663Z,99782.41
2023-03-31T01:40:06.681Z,99776.28
2023-03-31T01:40:46.681Z,99781.41
2023-03-31T01:41:15.263Z,99780.59
2023-03-31T01:41:40.963Z,99778.94
2023-03-31T01:42:05.668Z,99775.44
2023-03-31T01:42:27.976Z,99778.94
2023-03-31T01:42:45.254Z,99781.78
2023-03-31T01:43:00.171Z,99778.94
2023-03-31T01:43:20.559Z,99769.50
2023-03-31T01:43:40.439Z,99769.50
2023-03-31T01:44:02.814Z,99774.00
2023-03-31T01:44:21.852Z,99774.81
2023-03-31T01:44:40.994Z,99766.81
2023-03-31T01:45:03.589Z,99772.78
2023-03-31T01:45:26.633Z,99769.50
2023-03-31T01:45:51.901Z,99776.47
2023-03-31T01:46:13.253Z,99771.34
2023-03-31T01:46:29.221Z,99768.69
2023-03-31T01:46:46.780Z,99772.97
2023-03-31T01:47:04.534Z,99775.63
2023-03-31T01:47:25.262Z,99772.16
2023-03-31T01:47:39.648Z,99768.69
2023-03-31T01:47:56.334Z,99778.31
2023-03-31T01:48:13.343Z,99774.81
2023-03-31T01:48:36.766Z,99773.78
2023-03-31T01:48:59.358Z,99763.34
2023-03-31T01:49:20.613Z,99766.00
2023-03-31T01:49:43.875Z,99771.34
2023-03-31T01:50:01.493Z,99767.84
2023-03-31T01:50:22.210Z,99768.69
2023-03-31T01:50:36.837Z,99770.31
2023-03-31T01:50:55.818Z,99766.63
2023-03-31T01:51:13.763Z,99771.13
2023-03-31T01:51:34.267Z,99766.81
2023-03-31T01:51:52.062Z,99762.31
2023-03-31T01:52:09.647Z,99772.16
2023-03-31T01:52:24.674Z,99774.63
2023-03-31T01:52:45.292Z,99769.50
2023-03-31T01:53:02.234Z,99775.63
2023-03-31T01:53:18.627Z,99777.50
2023-03-31T01:53:36.027Z,99781.78
2023-03-31T01:53:54.162Z,99766.81
2023-03-31T01:54:19.435Z,99778.53
2023-03-31T01:54:38.757Z,99777.50
2023-03-31T01:54:55.244Z,99770.53
2023-03-31T01:55:12.552Z,99772.16
2023-03-31T01:55:29.872Z,99780.16
2023-03-31T01:55:47.304Z,99775.00
2023-03-31T01:56:06.648Z,99778.72
2023-03-31T01:56:22.736Z,99777.69
2023-03-31T01:56:38.394Z,99778.72
2023-03-31T01:56:55.580Z,99771.72
2023-03-31T01:57:14.826Z,99778.06
2023-03-31T01:57:31.838Z,99776.22
2023-03-31T01:57:51.230Z,99776.22
2023-03-31T01:58:09.092Z,99772.75
2023-03-31T01:58:25.564Z,99779.94
2023-03-31T01:58:41.054Z,99768.44
2023-03-31T01:58:58.086Z,99778.25
2023-03-31T01:59:15.053Z,99780.94
2023-03-31T01:59:31.149Z,99773.16
2023-03-31T01:59:53.472Z,99776.63
2023-03-31T02:00:11.325Z,99766.38
2023-03-31T02:00:29.447Z,99776.63
2023-03-31T02:00:45.438Z,99779.28
2023-03-31T02:01:02.047Z,99779.28
2023-03-31T02:01:19.289Z,99774.97
2023-03-31T02:01:38.127Z,99773.31
2023-03-31T02:01:53.384Z,99775.19
2023-03-31T02:02:09.713Z,99777.84
2023-03-31T02:02:27.548Z,99782.34
2023-03-31T02:02:46.285Z,99772.88
2023-03-31T02:03:04.504Z,99776.41
2023-03-31T02:03:22.567Z,99770.44
2023-03-31T02:03:40.340Z,99771.44
2023-03-31T02:03:56.754Z,99767.75
2023-03-31T02:04:13.414Z,99766.31
2023-03-31T02:04:31.947Z,99764.47
2023-03-31T02:04:51.446Z,99774.31
2023-03-31T02:05:08.672Z,99770.81
2023-03-31T02:05:24.317Z,99772.66
2023-03-31T02:05:42.187Z,99775.13
2023-03-31T02:05:58.926Z,99766.69
2023-03-31T02:06:15.611Z,99771.00
2023-03-31T02:06:34.769Z,99771.00
2023-03-31T02:06:54.137Z,99770.16
2023-03-31T02:07:12.786Z,99772.84
2023-03-31T02:07:29.957Z,99765.88
2023-03-31T02:07:46.601Z,99773.88
2023-03-31T02:08:04.760Z,99771.19
2023-03-31T02:08:21.723Z,99773.06
2023-03-31T02:08:38.152Z,99776.72
2023-03-31T02:08:54.965Z,99774.91
2023-03-31T02:09:13.586Z,99776.72
2023-03-31T02:09:29.562Z,99777.56
2023-03-31T02:09:45.858Z,99774.91
2023-03-31T02:10:01.652Z,99772.41
2023-03-31T02:10:15.963Z,99774.25
2023-03-31T02:10:31.411Z,99772.59
2023-03-31T02:10:45.355Z,99772.81
2023-03-31T02:10:59.412Z,99773.63
2023-03-31T02:11:12.421Z,99771.16
2023-03-31T02:11:25.750Z,99771.16
2023-03-31T02:11:40.350Z,99774.00
2023-03-31T02:11:55.471Z,99779.31
2023-03-31T02:12:11.590Z,99767.03
2023-03-31T02:12:28.375Z,99772.53
2023-03-31T02:12:43.447Z,99771.53
2023-03-31T02:12:57.847Z,99773.56
2023-03-31T02:13:12.983Z,99770.09
2023-03-31T02:13:29.519Z,99772.75
2023-03-31T02:13:45.611Z,99767.44
2023-03-31T02:14:00.607Z,99767.63
2023-03-31T02:14:16.898Z,99775.59
2023-03-31T02:14:31.393Z,99778.09
2023-03-31T02:14:48.115Z,99772.13
2023-03-31T02:15:04.084Z,99777.63
2023-03-31T02:15:21.207Z,99775.16
2023-03-31T02:15:37.065Z,99774.16
2023-03-31T02:15:54.887Z,99769.00
2023-03-31T02:16:10.857Z,99765.53
2023-03-31T02:16:26.800Z,99767.56
2023-03-31T02:16:43.544Z,99766.75
2023-03-31T02:16:59.497Z,99766.94
2023-03-31T02:17:15.937Z,99769.59
2023-03-31T02:17:29.338Z,99767.75
2023-03-31T02:17:44.312Z,99772.25
2023-03-31T02:18:02.271Z,99770.81
2023-03-31T02:18:18.271Z,99767.31
2023-03-31T02:18:33.819Z,99764.66
2023-03-31T02:18:48.600Z,99768.31
2023-03-31T02:19:04.571Z,99768.31
2023-03-31T02:19:19.148Z,99766.69
2023-03-31T02:19:34.084Z,99767.50
2023-03-31T02:19:51.892Z,99768.31
2023-03-31T02:20:09.514Z,99774.69
2023-03-31T02:20:23.311Z,99774.69
2023-03-31T02:20:37.857Z,99771.19
2023-03-31T02:20:52.696Z,99765.25
2023-03-31T02:21:07.128Z,99777.53
2023-03-31T02:21:20.216Z,99772.41
2023-03-31T02:21:34.404Z,99769.75
2023-03-31T02:21:51.009Z,99767.09
2023-03-31T02:22:07.723Z,99766.25
2023-03-31T02:22:23.148Z,99771.56
2023-03-31T02:22:39.862Z,99768.91
2023-03-31T02:22:55.270Z,99768.25
2023-03-31T02:23:10.073Z,99768.25
2023-03-31T02:23:25.961Z,99768.66
2023-03-31T02:23:38.833Z,99778.09
2023-03-31T02:23:52.073Z,99771.31
2023-03-31T02:24:10.977Z,99773.81
2023-03-31T02:24:27.064Z,99765.19
2023-03-31T02:24:42.311Z,99771.50
2023-03-31T02:24:57.526Z,99779.31
2023-03-31T02:25:13.018Z,99776.66
2023-03-31T02:25:32.448Z,99768.03
2023-03-31T02:25:49.054Z,99775.19
2023-03-31T02:26:05.513Z,99773.34
2023-03-31T02:26:22.086Z,99769.06
2023-03-31T02:26:38.049Z,99768.25
2023-03-31T02:26:53.497Z,99773.56
2023-03-31T02:27:11.287Z,99769.25
2023-03-31T02:27:28.655Z,99767.59
2023-03-31T02:27:43.002Z,99766.75
2023-03-31T02:27:58.453Z,99769.41
2023-03-31T02:28:15.053Z,99771.25
2023-03-31T02:28:29.329Z,99767.97
2023-03-31T02:28:43.200Z,99768.59
2023-03-31T02:28:55.253Z,99768.78
2023-03-31T02:29:08.052Z,99770.63
2023-03-31T02:29:20.883Z,99765.31
2023-03-31T02:29:33.679Z,99766.13
2023-03-31T02:29:46.212Z,99770.63
2023-03-31T02:29:59.322Z,99773.28
2023-03-31T02:30:13.397Z,99770.63
2023-03-31T02:30:29.988Z,99771.66
2023-03-31T02:30:48.889Z,99769.00
2023-03-31T02:31:10.956Z,99765.88
2023-03-31T02:31:29.283Z,99771.84
2023-03-31T02:31:49.437Z,99764.88
2023-03-31T02:32:05.661Z,99771.84
2023-03-31T02:32:22.940Z,99769.34
2023-03-31T02:32:38.289Z,99771.41
2023-03-31T02:32:50.962Z,99768.53
2023-03-31T02:33:04.088Z,99766.91
2023-03-31T02:33:16.438Z,99769.34
2023-03-31T02:33:28.727Z,99772.03
2023-03-31T02:33:42.094Z,99774.06
2023-03-31T02:33:54.326Z,99771.41
2023-03-31T02:34:06.994Z,99767.09
2023-03-31T02:34:19.121Z,99768.94
2023-03-31T02:34:31.634Z,99775.06
2023-03-31T02:34:44.348Z,99777.75
2023-03-31T02:34:57.109Z,99772.41
2023-03-31T02:35:12.611Z,99774.25
2023-03-31T02:35:24.783Z,99776.91
2023-03-31T02:35:37.571Z,99771.59
2023-03-31T02:35:50.263Z,99773.44
2023-03-31T02:36:03.409Z,99770.78
2023-03-31T02:36:15.636Z,99777.09
2023-03-31T02:36:28.538Z,99772.81
2023-03-31T02:36:43.242Z,99777.09
2023-03-31T02:36:56.446Z,99771.78
2023-03-31T02:37:10.274Z,99775.47
2023-03-31T02:37:22.846Z,99773.81
2023-03-31T02:37:35.378Z,99772.00
2023-03-31T02:37:48.704Z,99775.47
2023-03-31T02:38:01.435Z,99775.47
2023-03-31T02:38:15.358Z,99771.34
2023-03-31T02:38:28.712Z,99776.47
2023-03-31T02:38:46.146Z,99779.13
2023-03-31T02:39:03.606Z,99774.00
2023-03-31T02:39:19.073Z,99775.66
2023-03-31T02:39:35.035Z,99778.31
2023-03-31T02:39:50.267Z,99773.81
2023-03-31T02:40:07.548Z,99770.31
2023-03-31T02:40:21.351Z,99767.66
2023-03-31T02:40:34.832Z,99772.00
2023-03-31T02:40:47.608Z,99764.81
2023-03-31T02:41:00.109Z,99767.47
2023-03-31T02:41:12.566Z,99773.44
2023-03-31T02:41:25.126Z,99776.09
2023-03-31T02:41:38.645Z,99770.78
2023-03-31T02:41:51.604Z,99774.25
2023-03-31T02:42:06.140Z,99761.50
2023-03-31T02:42:19.457Z,99775.06
2023-03-31T02:42:34.672Z,99769.75
2023-03-31T02:42:47.333Z,99768.75
2023-03-31T02:43:00.101Z,99765.44
2023-03-31T02:43:12.802Z,99764.25
2023-03-31T02:43:25.769Z,99767.72
2023-03-31T02:43:39.686Z,99773.03
2023-03-31T02:43:52.206Z,99761.59
2023-03-31T02:44:04.258Z,99760.56
2023-03-31T02:44:18.296Z,99771.19
2023-03-31T02:44:30.967Z,99761.59
2023-03-31T02:44:44.288Z,99767.72
2023-03-31T02:45:02.596Z,99764.03
2023-03-31T02:45:43.624Z,99766.69
2023-03-31T02:45:57.232Z,99764.66
2023-03-31T02:46:10.733Z,99767.16
2023-03-31T02:46:23.272Z,99768.78
2023-03-31T02:46:37.940Z,99765.13
2023-03-31T02:46:50.531Z,99767.78
2023-03-31T02:47:03.730Z,99769.41
2023-03-31T02:47:19.045Z,99761.44
2023-03-31T02:47:31.696Z,99764.94
2023-03-31T02:47:44.430Z,99769.25
2023-03-31T02:47:57.341Z,99759.63
2023-03-31T02:48:14.184Z,99762.28
2023-03-31T02:48:29.898Z,99766.38
2023-03-31T02:48:47.067Z,99762.06
2023-03-31T02:49:01.748Z,99770.91
2023-03-31T02:49:16.937Z,99768.25
2023-03-31T02:49:30.427Z,99760.25
2023-03-31T02:49:46.256Z,99765.56
2023-03-31T02:50:02.874Z,99760.44
2023-03-31T02:50:19.343Z,99765.75
2023-03-31T02:50:39.304Z,99764.94
2023-03-31T02:51:14.087Z,99762.28
2023-03-31T02:52:17.876Z,99757.94
2023-03-31T02:52:51.708Z,99756.31
2023-03-31T02:53:11.392Z,99754.66
2023-03-31T02:53:31.063Z,99763.47
2023-03-31T02:53:57.050Z,99747.69
2023-03-31T02:54:36.693Z,99759.16
2023-03-31T02:55:23.363Z,99764.47
2023-03-31T02:56:00.255Z,99759.16
2023-03-31T02:56:23.915Z,99761.00
2023-03-31T02:56:54.655Z,99759.34
2023-03-31T02:57:21.602Z,99756.69
2023-03-31T02:58:03.956Z,99755.69
2023-03-31T02:58:50.555Z,99754.66
2023-03-31T02:59:16.153Z,99753.00
2023-03-31T02:59:40.987Z,99751.34
2023-03-31T03:00:05.535Z,99747.69
2023-03-31T03:00:27.350Z,99748.50
2023-03-31T03:00:56.419Z,99746.03
2023-03-31T03:01:25.158Z,99741.53
2023-03-31T03:01:53.954Z,99745.84
2023-03-31T03:02:17.801Z,99743.19
2023-03-31T03:02:40.825Z,99742.16
2023-03-31T03:03:11.885Z,99743.00
2023-03-31T03:03:37.033Z,99735.63
2023-03-31T03:04:02.677Z,99740.75
2023-03-31T03:04:33.212Z,99741.38
2023-03-31T03:05:11.151Z,99737.72
2023-03-31T03:05:36.976Z,99739.34
2023-03-31T03:06:29.789Z,99740.19
2023-03-31T03:06:59.827Z,99743.47
2023-03-31T03:07:23.510Z,99739.81
2023-03-31T03:07:45.705Z,99750.25
2023-03-31T03:08:12.954Z,99742.25
2023-03-31T03:08:35.750Z,99749.25
2023-03-31T03:09:02.121Z,99745.13
2023-03-31T03:09:27.466Z,99739.59
2023-03-31T03:09:49.578Z,99744.94
2023-03-31T03:10:06.334Z,99745.78
2023-03-31T03:10:25.870Z,99747.81
2023-03-31T03:10:53.662Z,99747.81
2023-03-31T03:11:10.719Z,99747.81
2023-03-31T03:11:29.484Z,99746.94
2023-03-31T03:11:50.450Z,99748.00
2023-03-31T03:12:11.748Z,99750.84
2023-03-31T03:12:28.234Z,99744.69
2023-03-31T03:12:50.075Z,99749.00
2023-03-31T03:13:08.907Z,99753.50
2023-03-31T03:13:27.203Z,99749.00
2023-03-31T03:13:47.147Z,99743.69
2023-03-31T03:14:05.811Z,99750.84
2023-03-31T03:14:26.811Z,99741.22
2023-03-31T03:14:46.854Z,99750.00
2023-03-31T03:15:05.154Z,99752.50
2023-03-31T03:15:24.340Z,99755.16
2023-03-31T03:15:43.952Z,99752.69
2023-03-31T03:15:59.309Z,99753.31
2023-03-31T03:16:18.451Z,99754.34
2023-03-31T03:16:37.772Z,99750.66
2023-03-31T03:16:57.119Z,99751.47
2023-03-31T03:17:13.328Z,99746.94
2023-03-31T03:17:30.613Z,99753.13
2023-03-31T03:17:45.759Z,99753.94
2023-03-31T03:17:59.599Z,99752.09
2023-03-31T03:18:12.410Z,99749.44
2023-03-31T03:18:25.056Z,99749.44
2023-03-31T03:18:37.435Z,99750.25
2023-03-31T03:18:56.364Z,99746.59
2023-03-31T03:19:09.331Z,99744.94
2023-03-31T03:19:22.764Z,99746.59